This is the latest recevied weather packets stored in our database for station/object IZ5MMH-14. If no packets are shown the sender has not sent any weather packets the latest 10 day(s).
| Time | Temp. | Humidity | Pressure | Rain* | Wind** | Luminosity | Snow |
|---|---|---|---|---|---|---|---|
| 1777871999 | 16.67° C | 10% | - | - | - | - | - |
| 1777871399 | 16.67° C | 99% | 1018.5 hPa | - | - | - | - |
| 1777870799 | 16.67° C | 98% | 1018.5 hPa | - | - | - | - |
| 1777870200 | 16.67° C | 96% | 1018.5 hPa | - | - | - | - |
| 1777869599 | 16.67° C | 98% | 1018.4 hPa | - | - | - | - |
| 1777868999 | 16.11° C | 98% | 1018.4 hPa | - | - | - | - |
| 1777868399 | 16.11° C | 99% | 1018.5 hPa | - | - | - | - |
| 1777867799 | 16.11° C | 99% | 1018.4 hPa | - | - | - | - |
| 1777867199 | 16.11° C | 10% | - | - | - | - | - |
| 1777865399 | 16.11° C | 10% | - | - | - | - | - |
| 1777864799 | 16.11° C | 10% | - | - | - | - | - |
| 1777846799 | 17.78° C | 97% | 1019.1 hPa | - | - | - | - |
| 1777845610 | 18.33° C | 95% | 1019.1 hPa | - | - | - | - |
| 1777842010 | 17.78° C | 92% | 1019.1 hPa | - | - | - | - |
| 1777841410 | 17.78° C | 90% | 1019.2 hPa | - | - | - | - |
| 1777839610 | 17.22° C | 83% | 1019.1 hPa | - | - | - | - |
| 1777837810 | 18.33° C | 86% | 1019 hPa | - | - | - | - |
| 1777837210 | 18.33° C | 81% | 1018.9 hPa | - | - | - | - |
| 1777834213 | 18.89° C | 67% | 1018.7 hPa | - | - | - | - |
| 1777832410 | 21.11° C | 64% | 1018.5 hPa | - | - | - | - |
| 1777828212 | 23.89° C | 59% | 1018.2 hPa | - | - | - | - |
| 1777827010 | 23.89° C | 57% | 1018.2 hPa | - | - | - | - |
| 1777826410 | 23.89° C | 56% | 1018.1 hPa | - | - | - | - |
| 1777821610 | 25° C | 44% | 1018.3 hPa | - | - | - | - |
| 1777803010 | 23.89° C | 57% | 1020.8 hPa | - | - | - | - |
* Rain since midnight (hover to see other rain measurements)
** Current wind speed in m/s (hover to see current wind gust speed)